METAR AND TAF INFORMATION
METAR FOR LGSM
ADDS - METARS form results

(0945 UTC 21 January 2019)
Data provider http://aviationweather.gov/metar/data/
 
METAR text: LGSM 210920Z 01005KT 9999 FEW016 BKN020 11/07 Q1015
Conditions at: LGSM (SAMOS AIRPORT , GR) observed 0920 UTC 21 January 2019
Temperature: 11.0°C (52°F)
Dewpoint: 7.0°C (45°F) [RH = 76%]
Pressure (altimeter): 29.97 inches Hg (1015.0 mb)
Winds: from the N (10 degrees) at 6 MPH (5 knots; 2.6 m/s)
Visibility: 6 or more miles (10+ km)
Ceiling: 2000 feet AGL
Clouds: few clouds at 1600 feet AGL
broken clouds at 2000 feet AGL
Weather: no significant weather observed at this time

METAR text: LGSM 210850Z 36005KT 9000 FEW016 BKN020 11/08 Q1015
Conditions at: LGSM (SAMOS AIRPORT , GR) observed 0850 UTC 21 January 2019
Temperature: 11.0°C (52°F)
Dewpoint: 8.0°C (46°F) [RH = 82%]
Pressure (altimeter): 29.97 inches Hg (1015.0 mb)
Winds: from the N (360 degrees) at 6 MPH (5 knots; 2.6 m/s)
Visibility: 6 miles ( 9 km)
Ceiling: 2000 feet AGL
Clouds: few clouds at 1600 feet AGL
broken clouds at 2000 feet AGL
Weather: no significant weather observed at this time

Forecast for: LGSM (SAMOS AIRPORT , GR)
Text: TAF LGSM 210800Z 2109/2118 36010KT 9999 FEW015 SCT020
Forecast period: 0900 to 1800 UTC 21 January 2019
Forecast type: FROM: standard forecast or significant change
Winds: from the N (360 degrees) at 12 MPH (10 knots; 5.1 m/s)
Visibility: 6 or more miles 10+ km)
Ceiling: at least 12,000 feet AGL
Clouds: few clouds at 1500 feet AGL
scattered clouds at 2000 feet AGL
Weather: no significant weather forecast for this period
Text: PROB30
Forecast period: 0900 to 1400 UTC 21 January 2019
Forecast type: TEMPORARY: The following changes expected for less than half the time period
Visibility: 3 miles (5 km)
Ceiling: 2000 feet AGL
Clouds: scattered clouds at 1000 feet AGL
few clouds at 1800 feet AGL
broken clouds at 2000 feet AGL
Weather: RA  (moderate rain)

 AIRPORT MAP

 RUNWAY INFORMATION
Runway 09 Runway length 6706 ft Runway width 148 ft
Runway elevation 20 ft Runway displaced threshold 230 ft Runway heading 94
Runway 27 Runway length 6706 ft Runway width 148 ft
Runway elevation 10 ft Runway displaced threshold 0 ft Runway heading 274

 AIRPORT FREQUENCIES
Type A/G Name RDO Frequency 563.7 MHZ
Type APP Name APP Frequency 122.1 MHZ
Type TWR Name TWR Frequency 122.1 MHZ

 AIRPORT NEAR NAVIGATION AIDS
Type VOR-DME Name Samos Frequency 111600 KHZ
Type NDB Name Samos Frequency 375 KHZ



Copyright © 2007-2018 Istanbul Virtual Airlines.All rights reserved.Developed by Arca Erdik and Aykut Alp Kurt.